Time;durP1;ratioP1;P1;durP2;ratioP2;P2;SDS_P1;SDS_P2;PMS_P1;PMS_P2;Temp;Humidity;BMP_temperature;BMP_pressure;BME280_temperature;BME280_humidity;BME280_pressure;Samples;Min_cycle;Max_cycle;Signal;HPM_P1;HPM_P2
2020/12/23 00:02:20;;;;;;;3.00;2.70;;;15.10;69.80;;;;;;5073642;28;20437;-55
2020/12/23 00:04:47;;;;;;;5.37;3.03;;;15.10;69.60;;;;;;5074045;28;20464;-55
2020/12/23 00:07:15;;;;;;;4.13;2.47;;;15.10;69.50;;;;;;5073816;28;20434;-54
2020/12/23 00:09:42;;;;;;;4.47;2.87;;;15.00;69.50;;;;;;5073399;28;20513;-56
2020/12/23 00:12:10;;;;;;;3.00;2.70;;;15.10;69.30;;;;;;5073846;28;20441;-53
2020/12/23 00:14:37;;;;;;;6.50;3.00;;;15.10;69.30;;;;;;5073624;28;20446;-55
2020/12/23 00:17:04;;;;;;;4.30;2.70;;;15.00;69.10;;;;;;5073884;28;20487;-56
2020/12/23 00:19:31;;;;;;;3.57;2.87;;;15.10;69.20;;;;;;5073616;28;20564;-55
2020/12/23 00:21:58;;;;;;;2.87;2.63;;;15.00;69.10;;;;;;5073221;28;20434;-54
2020/12/23 00:24:24;;;;;;;4.30;3.13;;;15.00;69.10;;;;;;5073838;28;20433;-52
2020/12/23 00:26:51;;;;;;;2.90;2.70;;;15.00;69.10;;;;;;5084918;28;20432;-54
2020/12/23 00:29:19;;;;;;;3.23;2.70;;;15.00;69.00;;;;;;5093829;28;20437;-56
2020/12/23 00:31:46;;;;;;;3.87;2.97;;;15.00;68.80;;;;;;5093286;28;20542;-55
2020/12/23 00:34:12;;;;;;;9.30;3.30;;;14.90;68.70;;;;;;5094033;28;20457;-51
2020/12/23 00:36:39;;;;;;;4.53;2.77;;;14.90;68.50;;;;;;5074596;28;20519;-55
2020/12/23 00:39:06;;;;;;;2.77;2.57;;;14.90;68.50;;;;;;5075625;28;20509;-53
2020/12/23 00:41:33;;;;;;;3.80;2.47;;;14.90;68.50;;;;;;5076888;28;20461;-56
2020/12/23 00:44:00;;;;;;;3.93;2.80;;;14.90;68.50;;;;;;5077540;28;20445;-55
2020/12/23 00:46:27;;;;;;;6.90;3.10;;;14.80;68.40;;;;;;5077554;28;20548;-52
2020/12/23 00:48:54;;;;;;;2.53;2.23;;;14.80;68.30;;;;;;5077464;28;20481;-54
2020/12/23 00:51:21;;;;;;;4.67;2.37;;;14.80;68.20;;;;;;5076710;28;20451;-55
2020/12/23 00:53:47;;;;;;;5.73;2.47;;;14.90;68.00;;;;;;5077336;28;20441;-56
2020/12/23 00:56:14;;;;;;;2.60;2.40;;;14.80;67.90;;;;;;5077430;28;20475;-53
2020/12/23 00:58:41;;;;;;;3.17;2.43;;;14.80;68.00;;;;;;5077353;28;20473;-55
2020/12/23 01:01:08;;;;;;;2.70;2.50;;;14.80;67.80;;;;;;5090918;28;20563;-56
2020/12/23 01:03:48;;;;;;;3.13;2.50;;;14.80;67.60;;;;;;5087965;28;20460;-56
2020/12/23 01:06:15;;;;;;;3.23;2.90;;;14.80;67.80;;;;;;5087961;28;20454;-56
2020/12/23 01:08:42;;;;;;;2.73;2.53;;;14.80;67.80;;;;;;5080807;28;20514;-56
2020/12/23 01:11:09;;;;;;;3.87;2.60;;;14.70;67.60;;;;;;5086132;28;20460;-57
2020/12/23 01:13:37;;;;;;;5.57;2.63;;;14.70;67.90;;;;;;5089787;28;20445;-56
2020/12/23 01:16:04;;;;;;;2.60;2.50;;;14.70;67.80;;;;;;5087534;28;20426;-53
2020/12/23 01:18:31;;;;;;;3.83;2.87;;;14.70;67.50;;;;;;5087638;28;20563;-55
2020/12/23 01:20:59;;;;;;;3.73;2.80;;;14.70;67.30;;;;;;5086846;28;20468;-53
2020/12/23 01:23:26;;;;;;;2.83;2.60;;;14.70;67.30;;;;;;5086456;28;20468;-54
2020/12/23 01:25:52;;;;;;;6.13;2.60;;;14.70;67.20;;;;;;5086265;28;20525;-56
2020/12/23 01:28:19;;;;;;;3.10;2.73;;;14.70;67.30;;;;;;5086282;28;20452;-54
2020/12/23 01:30:46;;;;;;;4.53;2.50;;;14.60;67.30;;;;;;5085945;28;20429;-57
2020/12/23 01:33:13;;;;;;;4.10;2.50;;;14.60;67.30;;;;;;5086017;28;20527;-53
2020/12/23 01:35:40;;;;;;;7.53;2.93;;;14.60;67.10;;;;;;5089952;28;20504;-57
2020/12/23 01:38:07;;;;;;;2.63;2.43;;;14.60;67.40;;;;;;5089108;28;20494;-56
2020/12/23 01:40:34;;;;;;;3.90;2.70;;;14.50;67.30;;;;;;5083552;28;20428;-57
2020/12/23 01:43:01;;;;;;;3.60;2.80;;;14.60;67.20;;;;;;5086085;28;20454;-53
2020/12/23 01:45:28;;;;;;;5.70;2.60;;;14.50;67.20;;;;;;5084850;28;20467;-55
2020/12/23 01:47:57;;;;;;;6.27;2.70;;;14.60;67.10;;;;;;5086351;28;20464;-55
2020/12/23 01:50:24;;;;;;;3.73;2.57;;;14.60;66.90;;;;;;5083358;28;20422;-54
2020/12/23 01:52:51;;;;;;;3.13;2.80;;;14.60;67.00;;;;;;5085017;28;20486;-56
2020/12/23 01:55:19;;;;;;;4.10;2.80;;;14.50;67.00;;;;;;5088516;28;20451;-55
2020/12/23 01:57:46;;;;;;;2.87;2.67;;;14.50;67.00;;;;;;5084854;28;20457;-56
2020/12/23 02:00:12;;;;;;;3.47;2.90;;;14.50;66.80;;;;;;5084306;28;20531;-57
2020/12/23 02:02:42;;;;;;;3.70;2.70;;;14.50;66.80;;;;;;5086999;28;20447;-54
2020/12/23 02:05:09;;;;;;;3.67;2.83;;;14.50;66.80;;;;;;5087503;28;20510;-54
2020/12/23 02:07:36;;;;;;;6.10;2.77;;;14.50;66.80;;;;;;5086051;28;20446;-56
2020/12/23 02:10:05;;;;;;;2.93;2.73;;;14.40;67.00;;;;;;5085622;28;20461;-52
2020/12/23 02:12:33;;;;;;;2.90;2.60;;;14.50;66.90;;;;;;5084733;28;20442;-55
2020/12/23 02:15:07;;;;;;;3.30;3.00;;;14.40;66.90;;;;;;5083444;28;20437;-55
2020/12/23 02:17:34;;;;;;;3.07;2.87;;;14.50;66.80;;;;;;5075883;28;20532;-56
2020/12/23 02:20:01;;;;;;;4.30;3.40;;;14.50;66.50;;;;;;5075309;28;20509;-56
2020/12/23 02:22:29;;;;;;;5.00;3.17;;;14.50;66.60;;;;;;5075894;28;20446;-56
2020/12/23 02:24:55;;;;;;;5.00;3.17;;;14.40;66.60;;;;;;5075933;28;20517;-54
2020/12/23 02:27:23;;;;;;;3.40;2.90;;;14.40;66.60;;;;;;5075828;28;20495;-56
2020/12/23 02:29:51;;;;;;;3.60;3.30;;;14.40;66.60;;;;;;5075723;28;20513;-56
2020/12/23 02:32:18;;;;;;;3.10;2.80;;;14.40;66.80;;;;;;5075299;28;20492;-57
2020/12/23 02:34:45;;;;;;;3.50;3.20;;;14.40;66.80;;;;;;5075473;28;20465;-57
2020/12/23 02:37:12;;;;;;;3.87;3.47;;;14.40;66.70;;;;;;5075596;28;20464;-57
2020/12/23 02:39:41;;;;;;;3.13;2.93;;;14.40;66.70;;;;;;5074634;28;20473;-57
2020/12/23 02:42:08;;;;;;;4.10;3.20;;;14.30;66.60;;;;;;5076893;28;20523;-57
2020/12/23 02:44:35;;;;;;;3.83;2.93;;;14.30;66.60;;;;;;5093241;28;20433;-54
2020/12/23 02:47:03;;;;;;;3.30;3.00;;;14.30;66.50;;;;;;5074918;28;20545;-57
2020/12/23 02:49:30;;;;;;;3.33;3.03;;;14.40;66.30;;;;;;5075230;28;20499;-57
2020/12/23 02:51:57;;;;;;;3.90;3.40;;;14.40;66.30;;;;;;5069554;28;20837;-57
2020/12/23 02:54:23;;;;;;;3.43;2.80;;;14.30;66.50;;;;;;5074685;28;20516;-56
2020/12/23 02:56:51;;;;;;;3.27;2.80;;;14.30;66.30;;;;;;5075118;28;20461;-56
2020/12/23 02:59:18;;;;;;;3.27;2.93;;;14.30;66.50;;;;;;5074912;28;20549;-55
2020/12/23 03:01:45;;;;;;;3.70;2.87;;;14.30;66.40;;;;;;5078852;28;20573;-55
2020/12/23 03:04:12;;;;;;;4.23;3.07;;;14.30;66.20;;;;;;5088797;28;20492;-56
2020/12/23 03:06:39;;;;;;;2.80;2.60;;;14.30;66.20;;;;;;5078619;28;20457;-55
2020/12/23 03:09:07;;;;;;;3.33;3.03;;;14.30;66.30;;;;;;5074808;28;20491;-56
2020/12/23 03:11:34;;;;;;;2.97;2.70;;;14.30;66.40;;;;;;5074160;28;20523;-55
2020/12/23 03:14:01;;;;;;;2.80;2.60;;;14.40;66.20;;;;;;5081833;28;20517;-56
2020/12/23 03:16:28;;;;;;;3.10;2.80;;;14.30;66.20;;;;;;5074716;28;20541;-57
2020/12/23 03:18:55;;;;;;;3.03;2.80;;;14.30;66.20;;;;;;5074491;28;20564;-56
2020/12/23 03:21:22;;;;;;;3.33;3.00;;;14.30;66.30;;;;;;5073962;28;20433;-53
2020/12/23 03:23:49;;;;;;;3.80;3.20;;;14.30;66.20;;;;;;5086091;28;20484;-56
2020/12/23 03:26:15;;;;;;;3.40;3.03;;;14.30;65.90;;;;;;5095171;28;20490;-54
2020/12/23 03:28:42;;;;;;;3.00;2.80;;;14.30;66.20;;;;;;5094848;28;20460;-56
2020/12/23 03:31:10;;;;;;;2.73;2.53;;;14.30;66.20;;;;;;5094376;28;20465;-55
2020/12/23 03:33:37;;;;;;;3.20;2.90;;;14.20;66.10;;;;;;5074688;28;20525;-56
2020/12/23 03:36:04;;;;;;;2.70;2.50;;;14.30;66.10;;;;;;5074392;28;20441;-53
2020/12/23 03:38:31;;;;;;;2.97;2.77;;;14.30;66.10;;;;;;5074205;28;20535;-54
2020/12/23 03:40:59;;;;;;;3.47;3.20;;;14.30;66.10;;;;;;5075643;28;20516;-53
2020/12/23 03:43:25;;;;;;;3.13;2.93;;;14.30;66.10;;;;;;5074656;28;20476;-56
2020/12/23 03:45:52;;;;;;;3.00;2.80;;;14.30;66.00;;;;;;5074018;28;20487;-51
2020/12/23 03:48:20;;;;;;;3.00;2.80;;;14.20;66.00;;;;;;5073974;28;20445;-52
2020/12/23 03:50:47;;;;;;;3.10;2.80;;;14.30;66.20;;;;;;5088847;28;20543;-56
2020/12/23 03:53:13;;;;;;;2.87;2.67;;;14.30;66.00;;;;;;5091085;28;20513;-52
2020/12/23 03:55:40;;;;;;;2.80;2.57;;;14.30;66.10;;;;;;5080442;28;20426;-55
2020/12/23 03:58:07;;;;;;;2.87;2.67;;;14.30;65.80;;;;;;5083317;28;20469;-56
2020/12/23 04:00:35;;;;;;;2.87;2.67;;;14.20;66.10;;;;;;5083621;28;20510;-56
2020/12/23 04:03:01;;;;;;;2.73;2.53;;;14.20;66.20;;;;;;5082450;28;20462;-55
2020/12/23 04:05:38;;;;;;;2.63;2.53;;;14.20;66.40;;;;;;5084954;28;20429;-56
2020/12/23 04:08:05;;;;;;;3.73;2.80;;;14.30;66.50;;;;;;5085445;28;20480;-56
2020/12/23 04:10:32;;;;;;;3.03;2.63;;;14.20;66.60;;;;;;5087234;28;20437;-56
2020/12/23 04:12:59;;;;;;;2.60;2.47;;;14.30;66.60;;;;;;5090903;28;20445;-56
2020/12/23 04:15:25;;;;;;;2.90;2.60;;;14.30;66.70;;;;;;5088699;28;20528;-55
2020/12/23 04:17:53;;;;;;;3.00;2.70;;;14.20;66.70;;;;;;5087084;28;20434;-53
2020/12/23 04:20:20;;;;;;;3.03;2.83;;;14.30;66.80;;;;;;5081865;28;20503;-54
2020/12/23 04:22:47;;;;;;;2.77;2.53;;;14.20;66.70;;;;;;5083177;28;20510;-54
2020/12/23 04:25:14;;;;;;;2.80;2.60;;;14.30;66.90;;;;;;5083333;28;20465;-51
2020/12/23 04:27:41;;;;;;;3.07;2.77;;;14.20;67.00;;;;;;5083905;28;20512;-54
2020/12/23 04:30:08;;;;;;;3.10;2.57;;;14.30;66.80;;;;;;5083571;28;20456;-56
2020/12/23 04:32:35;;;;;;;2.43;2.30;;;14.20;66.90;;;;;;5084682;28;20433;-55
2020/12/23 04:35:03;;;;;;;2.90;2.70;;;14.30;67.00;;;;;;5082020;28;20523;-54
2020/12/23 04:37:30;;;;;;;2.73;2.53;;;14.10;67.10;;;;;;5084697;28;20444;-56
2020/12/23 04:39:58;;;;;;;2.67;2.47;;;14.20;67.30;;;;;;5082621;28;20564;-54
2020/12/23 04:42:25;;;;;;;2.50;2.30;;;14.20;67.20;;;;;;5082845;28;20432;-56
2020/12/23 04:44:52;;;;;;;2.50;2.40;;;14.20;67.40;;;;;;5084629;28;20466;-55
2020/12/23 04:47:23;;;;;;;3.27;3.00;;;14.20;67.30;;;;;;5083906;28;20528;-55
2020/12/23 04:49:52;;;;;;;2.50;2.40;;;14.20;67.40;;;;;;5081181;28;20434;-56
2020/12/23 04:52:19;;;;;;;3.23;2.40;;;14.20;67.50;;;;;;5084003;28;20494;-53
2020/12/23 04:54:46;;;;;;;2.73;2.50;;;14.20;67.50;;;;;;5083743;28;20441;-55
2020/12/23 04:57:13;;;;;;;2.90;2.70;;;14.20;67.40;;;;;;5081893;28;20524;-56
2020/12/23 04:59:40;;;;;;;3.57;2.77;;;14.20;67.60;;;;;;5083223;28;20492;-55
2020/12/23 05:02:07;;;;;;;2.37;2.27;;;14.20;67.50;;;;;;5084505;28;20520;-55
2020/12/23 05:04:34;;;;;;;2.90;2.53;;;14.20;67.50;;;;;;5082068;28;20465;-54
2020/12/23 05:07:02;;;;;;;2.70;2.50;;;14.20;67.70;;;;;;5082337;28;20478;-53
2020/12/23 05:09:29;;;;;;;2.80;2.60;;;14.20;67.50;;;;;;5081783;28;20520;-51
2020/12/23 05:11:55;;;;;;;2.43;2.33;;;14.20;67.80;;;;;;5081381;28;20429;-55
2020/12/23 05:14:23;;;;;;;2.30;2.13;;;14.20;67.70;;;;;;5080610;28;20534;-57
2020/12/23 05:16:50;;;;;;;2.90;2.70;;;14.30;67.70;;;;;;5081972;28;20430;-55
2020/12/23 05:19:17;;;;;;;2.80;2.60;;;14.20;67.70;;;;;;5084822;28;20465;-56
2020/12/23 05:21:44;;;;;;;2.00;1.90;;;14.20;67.80;;;;;;5081839;28;20486;-53
2020/12/23 05:24:11;;;;;;;2.13;2.03;;;14.20;67.90;;;;;;5084188;28;20543;-55
2020/12/23 05:26:39;;;;;;;2.80;2.60;;;14.10;68.00;;;;;;5087767;28;20472;-55
2020/12/23 05:29:06;;;;;;;2.63;2.43;;;14.20;68.10;;;;;;5088575;28;20444;-53
2020/12/23 05:31:33;;;;;;;2.63;2.43;;;14.30;67.90;;;;;;5085178;28;20425;-55
2020/12/23 05:34:01;;;;;;;2.47;2.27;;;14.30;67.90;;;;;;5088216;28;20433;-53
2020/12/23 05:36:37;;;;;;;2.40;2.30;;;14.30;67.90;;;;;;5094238;28;20448;-54
2020/12/23 05:39:05;;;;;;;2.80;2.27;;;14.20;68.10;;;;;;5084713;28;20503;-53
2020/12/23 05:41:32;;;;;;;2.57;2.43;;;14.20;68.10;;;;;;5086164;28;20461;-56
2020/12/23 05:43:59;;;;;;;2.57;2.40;;;14.30;68.00;;;;;;5087852;28;20425;-56
2020/12/23 05:46:26;;;;;;;2.47;2.27;;;14.30;67.90;;;;;;5087398;28;20489;-56
2020/12/23 05:48:54;;;;;;;2.63;2.43;;;14.30;68.10;;;;;;5086215;28;20517;-56
2020/12/23 05:51:21;;;;;;;2.33;2.20;;;14.20;68.00;;;;;;5084571;28;20528;-54
2020/12/23 05:53:48;;;;;;;2.40;2.13;;;14.20;68.10;;;;;;5087217;28;20472;-56
2020/12/23 05:56:14;;;;;;;3.00;2.70;;;14.10;68.30;;;;;;5085889;28;20433;-56
2020/12/23 05:58:41;;;;;;;2.63;2.43;;;14.10;68.20;;;;;;5086987;28;20490;-56
2020/12/23 06:01:08;;;;;;;2.33;2.20;;;14.20;68.50;;;;;;5086376;28;20523;-56
2020/12/23 06:03:46;;;;;;;2.90;2.47;;;14.20;68.20;;;;;;5087135;28;20445;-56
2020/12/23 06:06:14;;;;;;;5.80;3.00;;;14.20;68.30;;;;;;5084060;28;20432;-55
2020/12/23 06:08:41;;;;;;;2.73;2.53;;;14.10;68.40;;;;;;5087115;28;20490;-54
2020/12/23 06:11:28;;;;;;;2.53;2.30;;;14.20;68.40;;;;;;5083590;28;20522;-53
2020/12/23 06:14:10;;;;;;;2.70;2.50;;;14.10;68.30;;;;;;5085920;28;20468;-56
2020/12/23 06:16:37;;;;;;;2.40;2.20;;;14.10;68.40;;;;;;5083115;28;20537;-56
2020/12/23 06:19:05;;;;;;;3.40;2.73;;;14.20;68.50;;;;;;5083992;28;20497;-55
2020/12/23 06:21:32;;;;;;;2.50;2.30;;;14.20;68.50;;;;;;5086680;28;20446;-57
2020/12/23 06:24:04;;;;;;;2.70;2.50;;;14.20;68.40;;;;;;5086687;28;20516;-54
2020/12/23 06:26:32;;;;;;;3.73;2.60;;;14.10;68.50;;;;;;5082205;28;20466;-56
2020/12/23 06:29:00;;;;;;;2.50;2.40;;;14.10;68.50;;;;;;5085942;28;20465;-55
2020/12/23 06:31:28;;;;;;;2.33;2.23;;;14.20;68.50;;;;;;5083861;28;20509;-56
2020/12/23 06:33:55;;;;;;;3.13;2.70;;;14.10;68.60;;;;;;5084597;28;20456;-57
2020/12/23 06:36:29;;;;;;;2.70;2.50;;;14.20;68.70;;;;;;5085128;28;20437;-54
2020/12/23 06:39:34;;;;;;;2.50;2.40;;;14.20;68.70;;;;;;5087038;28;20541;-55
2020/12/23 06:42:36;;;;;;;4.87;2.50;;;14.20;68.70;;;;;;5085229;28;20436;-56
2020/12/23 06:45:10;;;;;;;2.57;2.37;;;14.20;68.70;;;;;;5082586;28;20465;-53
2020/12/23 06:47:37;;;;;;;2.47;2.27;;;14.20;68.80;;;;;;5084946;28;20445;-54
2020/12/23 06:50:06;;;;;;;2.70;2.40;;;14.20;68.80;;;;;;5082184;28;20510;-55
2020/12/23 06:52:54;;;;;;;3.87;2.57;;;14.20;68.90;;;;;;5083661;28;20429;-56
2020/12/23 06:55:21;;;;;;;3.10;2.47;;;14.10;68.90;;;;;;5081277;28;20464;-54
2020/12/23 06:57:55;;;;;;;2.23;2.07;;;14.10;69.00;;;;;;5095650;28;20468;-56
2020/12/23 07:00:38;;;;;;;2.77;2.57;;;14.10;69.10;;;;;;5095016;28;20508;-56
2020/12/23 07:03:06;;;;;;;3.10;2.17;;;14.10;69.20;;;;;;5095811;28;20563;-55
2020/12/23 07:05:42;;;;;;;4.23;2.40;;;14.20;69.10;;;;;;5094643;28;20440;-54
2020/12/23 07:08:09;;;;;;;3.67;2.50;;;14.20;68.90;;;;;;5095257;28;20471;-54
2020/12/23 07:10:37;;;;;;;2.77;2.57;;;14.10;69.10;;;;;;5094279;28;20502;-54
2020/12/23 07:13:06;;;;;;;2.40;2.30;;;14.10;69.20;;;;;;5095043;28;20512;-56
2020/12/23 07:15:33;;;;;;;2.40;2.20;;;14.10;69.10;;;;;;5095167;28;20544;-55
2020/12/23 07:18:02;;;;;;;2.70;2.50;;;14.10;69.20;;;;;;5095074;28;20437;-53
2020/12/23 07:20:31;;;;;;;3.67;2.60;;;14.20;69.10;;;;;;5094471;28;20564;-56
2020/12/23 07:23:03;;;;;;;2.70;2.50;;;14.10;69.10;;;;;;5080413;28;20529;-55
2020/12/23 07:25:31;;;;;;;2.70;2.50;;;14.10;69.10;;;;;;5074612;28;20466;-55
2020/12/23 07:27:58;;;;;;;2.57;2.37;;;14.10;69.30;;;;;;5074307;28;20457;-56
2020/12/23 07:30:26;;;;;;;2.50;2.40;;;14.10;69.30;;;;;;5074007;28;20549;-55
2020/12/23 07:32:59;;;;;;;2.50;2.20;;;14.10;69.20;;;;;;5074224;28;20446;-53
2020/12/23 07:35:26;;;;;;;2.33;2.23;;;14.10;69.00;;;;;;5074188;28;20476;-56
2020/12/23 07:37:58;;;;;;;2.73;2.50;;;14.10;69.90;;;;;;5074275;28;20523;-53
2020/12/23 07:40:25;;;;;;;2.97;2.37;;;14.10;69.20;;;;;;5085826;28;20560;-55
2020/12/23 07:42:52;;;;;;;2.97;2.70;;;14.10;69.20;;;;;;5093468;28;20519;-52
2020/12/23 07:45:19;;;;;;;3.27;2.93;;;14.20;69.20;;;;;;5094484;28;20505;-54
2020/12/23 07:47:57;;;;;;;3.30;2.90;;;14.10;69.00;;;;;;5093102;28;20535;-57
2020/12/23 07:50:24;;;;;;;3.43;2.77;;;14.10;69.10;;;;;;5091400;28;20516;-55
2020/12/23 07:52:51;;;;;;;2.73;2.53;;;14.10;69.40;;;;;;5090536;28;20521;-56
2020/12/23 07:55:19;;;;;;;3.03;2.83;;;14.20;69.20;;;;;;5086080;28;20533;-56
2020/12/23 07:57:47;;;;;;;2.77;2.60;;;14.10;69.10;;;;;;5083377;28;20436;-54
2020/12/23 08:00:14;;;;;;;2.27;2.17;;;14.10;69.30;;;;;;5093791;28;20468;-56
2020/12/23 08:02:41;;;;;;;2.80;2.60;;;14.10;69.20;;;;;;5094005;28;20464;-56
2020/12/23 08:05:10;;;;;;;2.90;2.67;;;14.10;69.30;;;;;;5094499;28;20480;-56
2020/12/23 08:07:41;;;;;;;4.83;3.10;;;14.20;69.10;;;;;;5088994;28;20461;-54
2020/12/23 08:10:12;;;;;;;2.90;2.70;;;14.10;69.10;;;;;;5093653;28;20489;-56
2020/12/23 08:12:40;;;;;;;2.87;2.67;;;14.10;69.10;;;;;;5094294;28;20449;-53
2020/12/23 08:15:11;;;;;;;3.40;3.10;;;14.10;69.10;;;;;;5087979;28;20488;-56
2020/12/23 08:17:38;;;;;;;3.17;2.87;;;14.10;69.10;;;;;;5074191;28;20446;-55
2020/12/23 08:20:06;;;;;;;2.67;2.47;;;14.10;69.20;;;;;;5073615;28;20505;-57
2020/12/23 08:22:34;;;;;;;2.50;2.30;;;14.20;69.20;;;;;;5073872;28;20478;-57
2020/12/23 08:25:08;;;;;;;2.93;2.63;;;14.10;69.40;;;;;;5073934;28;20470;-54
2020/12/23 08:27:35;;;;;;;2.93;2.73;;;14.10;69.50;;;;;;5073964;28;20521;-57
2020/12/23 08:30:04;;;;;;;3.00;2.43;;;14.10;69.40;;;;;;5073180;28;20459;-56
2020/12/23 08:32:34;;;;;;;3.33;2.50;;;14.10;69.20;;;;;;5073765;28;20495;-57
2020/12/23 08:35:01;;;;;;;3.10;2.80;;;14.10;69.30;;;;;;5073752;28;20448;-57
2020/12/23 08:37:28;;;;;;;2.70;2.50;;;14.10;69.30;;;;;;5073493;28;20527;-55
2020/12/23 08:39:56;;;;;;;2.73;2.53;;;14.10;69.40;;;;;;5073196;28;20526;-55
2020/12/23 08:42:23;;;;;;;3.13;2.37;;;14.20;69.30;;;;;;5073534;28;20533;-57
2020/12/23 08:44:51;;;;;;;2.80;2.60;;;14.10;69.10;;;;;;5073887;28;20525;-53
2020/12/23 08:47:22;;;;;;;2.63;2.43;;;14.10;69.30;;;;;;5073817;28;20477;-57
2020/12/23 08:49:49;;;;;;;4.37;2.70;;;14.10;69.20;;;;;;5072962;28;20487;-57
2020/12/23 08:52:16;;;;;;;2.90;2.70;;;14.10;69.20;;;;;;5093764;28;20482;-57
2020/12/23 08:54:44;;;;;;;2.70;2.60;;;14.10;69.40;;;;;;5093508;28;20495;-57
2020/12/23 08:57:12;;;;;;;2.60;2.40;;;14.10;69.20;;;;;;5094006;28;20476;-54
2020/12/23 08:59:39;;;;;;;2.63;2.43;;;14.10;69.30;;;;;;5094145;28;20567;-57
2020/12/23 09:02:12;;;;;;;3.53;2.73;;;14.10;69.40;;;;;;5097691;28;20440;-57
2020/12/23 09:04:38;;;;;;;2.93;2.50;;;14.10;69.40;;;;;;5097640;28;20538;-57
2020/12/23 09:07:05;;;;;;;2.83;2.53;;;14.10;69.50;;;;;;5097348;28;20535;-56
2020/12/23 09:09:32;;;;;;;2.70;2.50;;;14.10;69.40;;;;;;5097224;28;20467;-53
2020/12/23 09:12:01;;;;;;;2.77;2.57;;;14.20;69.50;;;;;;5097108;28;20535;-55
2020/12/23 09:14:30;;;;;;;3.10;2.90;;;14.20;69.40;;;;;;5097739;28;20476;-57
2020/12/23 09:16:58;;;;;;;2.83;2.53;;;14.20;69.40;;;;;;5092225;28;20535;-56
2020/12/23 09:19:41;;;;;;;2.83;2.60;;;14.20;69.30;;;;;;5076200;28;20551;-57
2020/12/23 09:22:08;;;;;;;2.90;2.70;;;14.10;69.40;;;;;;5076959;28;20468;-57
2020/12/23 09:24:35;;;;;;;3.07;2.70;;;14.20;69.60;;;;;;5093779;28;20463;-55
2020/12/23 09:27:15;;;;;;;2.73;2.53;;;14.10;69.50;;;;;;5089815;28;20477;-58
2020/12/23 09:29:43;;;;;;;2.90;2.70;;;14.30;69.40;;;;;;5087561;28;20425;-56
2020/12/23 09:32:09;;;;;;;2.90;2.70;;;14.10;69.50;;;;;;5096845;28;20528;-57
2020/12/23 09:34:53;;;;;;;3.50;2.93;;;14.20;69.70;;;;;;5096667;28;20494;-56
2020/12/23 09:37:28;;;;;;;2.80;2.60;;;14.20;69.50;;;;;;5097158;28;20437;-57
2020/12/23 09:39:55;;;;;;;2.60;2.40;;;14.20;69.50;;;;;;5096425;28;20467;-57
2020/12/23 09:42:22;;;;;;;2.70;2.47;;;14.20;69.60;;;;;;5096821;28;20441;-56
2020/12/23 09:44:50;;;;;;;2.93;2.73;;;14.20;69.50;;;;;;5096354;28;20444;-55
2020/12/23 09:47:17;;;;;;;2.70;2.50;;;14.20;69.70;;;;;;5096932;28;20536;-57
2020/12/23 09:49:43;;;;;;;3.20;2.90;;;14.20;69.60;;;;;;5096351;28;20443;-54
2020/12/23 09:52:10;;;;;;;2.73;2.50;;;14.20;69.50;;;;;;5093116;28;20462;-57
2020/12/23 09:54:37;;;;;;;2.87;2.60;;;14.30;69.50;;;;;;5076620;28;20542;-56
2020/12/23 09:57:04;;;;;;;3.00;2.73;;;14.30;69.30;;;;;;5076370;28;20437;-57
2020/12/23 09:59:31;;;;;;;3.20;2.30;;;14.30;69.20;;;;;;5076290;28;20484;-57
2020/12/23 10:01:59;;;;;;;2.03;1.93;;;14.20;69.30;;;;;;5075985;28;20465;-56
2020/12/23 10:04:25;;;;;;;2.60;2.50;;;14.30;69.40;;;;;;5076036;28;20438;-56
2020/12/23 10:06:52;;;;;;;2.93;2.73;;;14.30;69.30;;;;;;5076197;28;20437;-57
2020/12/23 10:09:37;;;;;;;2.50;2.30;;;14.30;69.30;;;;;;5075507;28;20434;-56
2020/12/23 10:12:04;;;;;;;2.77;2.57;;;14.30;69.50;;;;;;5074990;28;20471;-57
2020/12/23 10:14:31;;;;;;;3.40;2.30;;;14.20;69.60;;;;;;5076185;28;20525;-54
2020/12/23 10:16:58;;;;;;;2.70;2.50;;;14.30;69.70;;;;;;5076028;28;20524;-55
2020/12/23 10:19:25;;;;;;;2.13;2.03;;;14.20;69.50;;;;;;5075876;28;20461;-52
2020/12/23 10:21:52;;;;;;;2.67;2.43;;;14.30;69.50;;;;;;5075277;28;20473;-53
2020/12/23 10:24:19;;;;;;;2.80;2.60;;;14.30;69.30;;;;;;5075774;28;20532;-56
2020/12/23 10:26:50;;;;;;;2.57;2.37;;;14.40;69.40;;;;;;5076090;28;20532;-54
2020/12/23 10:29:17;;;;;;;2.60;2.40;;;14.40;69.40;;;;;;5075708;28;20525;-53
2020/12/23 10:31:44;;;;;;;2.70;2.50;;;14.40;69.00;;;;;;5075323;28;20512;-54
2020/12/23 10:34:11;;;;;;;2.47;2.37;;;14.50;69.20;;;;;;5075692;28;20466;-56
2020/12/23 10:36:38;;;;;;;2.73;2.53;;;14.40;69.40;;;;;;5075554;28;20494;-52
2020/12/23 10:39:05;;;;;;;3.57;2.97;;;14.40;69.40;;;;;;5075535;28;20521;-51
2020/12/23 10:41:32;;;;;;;2.80;2.60;;;14.40;69.30;;;;;;5075012;28;20588;-51
2020/12/23 10:43:58;;;;;;;2.23;2.13;;;14.50;69.20;;;;;;5075476;28;20532;-56
2020/12/23 10:46:25;;;;;;;2.40;2.30;;;14.50;69.40;;;;;;5075232;28;20465;-57
2020/12/23 10:48:52;;;;;;;2.63;2.43;;;14.50;69.20;;;;;;5074941;28;20485;-55
2020/12/23 10:51:20;;;;;;;2.50;2.30;;;14.50;69.10;;;;;;5074351;28;20466;-57
2020/12/23 10:53:47;;;;;;;2.83;2.63;;;14.50;69.10;;;;;;5075370;28;20553;-56
2020/12/23 10:56:13;;;;;;;2.60;2.50;;;14.50;69.20;;;;;;5074889;28;20442;-57
2020/12/23 10:58:40;;;;;;;2.40;2.20;;;14.40;69.40;;;;;;5075188;28;20434;-57
2020/12/23 11:01:07;;;;;;;2.50;2.27;;;14.50;69.50;;;;;;5080047;28;20838;-56
2020/12/23 11:03:34;;;;;;;3.17;2.87;;;14.50;69.50;;;;;;5093007;28;20490;-56
2020/12/23 11:06:01;;;;;;;2.63;2.43;;;14.50;69.50;;;;;;5086300;28;20444;-56
2020/12/23 11:08:28;;;;;;;2.63;2.43;;;14.50;69.50;;;;;;5095170;28;20432;-54
2020/12/23 11:10:55;;;;;;;2.80;2.60;;;14.50;69.40;;;;;;5094425;28;20429;-55
2020/12/23 11:13:22;;;;;;;2.53;2.33;;;14.50;69.40;;;;;;5095151;28;20484;-57
2020/12/23 11:15:49;;;;;;;2.70;2.50;;;14.50;69.40;;;;;;5094929;28;20425;-56
2020/12/23 11:18:16;;;;;;;2.60;2.40;;;14.70;69.20;;;;;;5094842;28;20475;-52
2020/12/23 11:20:43;;;;;;;2.40;2.30;;;14.70;69.00;;;;;;5093709;28;20564;-56
2020/12/23 11:23:09;;;;;;;2.50;2.40;;;14.60;69.10;;;;;;5094657;28;20505;-54
2020/12/23 11:25:37;;;;;;;2.10;2.00;;;14.60;69.30;;;;;;5094899;28;20468;-53
2020/12/23 11:28:04;;;;;;;2.90;2.60;;;14.70;69.30;;;;;;5094559;28;20463;-52
2020/12/23 11:30:32;;;;;;;2.57;2.37;;;14.60;69.20;;;;;;5093625;28;20436;-56
2020/12/23 11:32:59;;;;;;;2.97;2.67;;;14.50;69.40;;;;;;5094333;28;20436;-56
2020/12/23 11:35:25;;;;;;;2.30;2.20;;;14.60;69.60;;;;;;5094586;28;20536;-57
2020/12/23 11:37:52;;;;;;;2.70;2.50;;;14.50;69.80;;;;;;5094888;28;20487;-55
2020/12/23 11:40:32;;;;;;;2.37;2.17;;;14.50;69.80;;;;;;5073764;28;20517;-56
2020/12/23 11:43:00;;;;;;;2.33;2.23;;;14.50;69.70;;;;;;5074277;28;20520;-55
2020/12/23 11:45:27;;;;;;;2.30;2.20;;;14.50;69.80;;;;;;5074412;28;20469;-53
2020/12/23 11:47:54;;;;;;;2.47;2.30;;;14.50;70.10;;;;;;5083136;28;20531;-52
2020/12/23 11:50:20;;;;;;;2.73;2.53;;;14.50;70.10;;;;;;5094025;28;20520;-54
2020/12/23 11:52:48;;;;;;;2.47;2.30;;;14.50;70.10;;;;;;5094538;28;20432;-55
2020/12/23 11:55:18;;;;;;;3.10;2.80;;;14.50;70.00;;;;;;5094204;28;20459;-56
2020/12/23 11:57:45;;;;;;;2.37;2.27;;;14.50;70.10;;;;;;5076889;28;20438;-54
2020/12/23 12:00:12;;;;;;;2.80;2.60;;;14.50;70.70;;;;;;5073350;28;20473;-53
2020/12/23 12:02:39;;;;;;;2.30;2.10;;;14.60;70.10;;;;;;5073798;28;20442;-55
2020/12/23 12:05:09;;;;;;;2.47;2.30;;;14.60;70.00;;;;;;5073752;28;20498;-57
2020/12/23 12:07:35;;;;;;;2.80;2.60;;;14.50;70.20;;;;;;5074165;28;20446;-53
2020/12/23 12:10:03;;;;;;;2.30;2.20;;;14.50;70.40;;;;;;5073452;28;20430;-56
2020/12/23 12:12:30;;;;;;;2.53;2.33;;;14.50;70.30;;;;;;5074088;28;20465;-54
2020/12/23 12:14:56;;;;;;;2.43;2.33;;;14.50;70.20;;;;;;5073981;28;20460;-56
2020/12/23 12:17:24;;;;;;;2.70;2.50;;;14.40;70.40;;;;;;5088640;28;20482;-54
2020/12/23 12:19:51;;;;;;;2.70;2.50;;;14.50;70.40;;;;;;5086594;28;20538;-55
2020/12/23 12:22:18;;;;;;;2.67;2.50;;;14.50;70.50;;;;;;5089877;28;20524;-53
2020/12/23 12:24:45;;;;;;;2.70;2.50;;;14.50;70.30;;;;;;5074053;28;20484;-55
2020/12/23 12:27:12;;;;;;;2.77;2.47;;;14.60;70.40;;;;;;5073543;28;20441;-56
2020/12/23 12:29:39;;;;;;;3.33;3.03;;;14.60;70.30;;;;;;5073466;28;20454;-57
2020/12/23 12:32:06;;;;;;;2.50;2.40;;;14.60;70.40;;;;;;5073798;28;20441;-55
2020/12/23 12:34:34;;;;;;;2.80;2.60;;;14.60;70.20;;;;;;5074870;28;20445;-57
2020/12/23 12:37:00;;;;;;;2.80;2.60;;;14.60;70.20;;;;;;5077704;28;20532;-56
2020/12/23 12:39:27;;;;;;;2.67;2.47;;;14.60;70.30;;;;;;5077508;28;20545;-56
2020/12/23 12:41:55;;;;;;;3.40;3.03;;;14.60;70.40;;;;;;5076849;28;20508;-57
2020/12/23 12:44:22;;;;;;;2.93;2.53;;;14.70;70.20;;;;;;5077873;28;20460;-57
2020/12/23 12:46:49;;;;;;;3.10;2.90;;;14.70;70.10;;;;;;5078110;28;20433;-56
2020/12/23 12:49:16;;;;;;;2.73;2.53;;;14.60;70.20;;;;;;5078029;28;20540;-55
2020/12/23 12:51:43;;;;;;;2.50;2.40;;;14.60;70.40;;;;;;5076873;28;20469;-57
2020/12/23 12:54:10;;;;;;;3.10;2.80;;;14.60;70.40;;;;;;5077310;28;20442;-55